Time;durP1;ratioP1;P1;durP2;ratioP2;P2;SDS_P1;SDS_P2;PMS_P1;PMS_P2;Temp;Humidity;BMP_temperature;BMP_pressure;BME280_temperature;BME280_humidity;BME280_pressure;Samples;Min_cycle;Max_cycle;Signal;HPM_P1;HPM_P2
2023/11/13 00:02:03;;;;;;;0.28;0.28;;;;;;;7.60;71.79;100826.81;5097417;28;20133;-80
2023/11/13 00:04:29;;;;;;;0.40;0.40;;;;;;;7.60;71.91;100826.81;5101174;28;20028;-81
2023/11/13 00:06:55;;;;;;;0.20;0.20;;;;;;;7.60;72.06;100825.91;5100755;28;20085;-80
2023/11/13 00:09:22;;;;;;;0.40;0.40;;;;;;;7.57;72.16;100807.50;5100430;28;20035;-78
2023/11/13 00:11:48;;;;;;;0.52;0.52;;;;;;;7.59;72.23;100811.00;5100965;28;20032;-81
2023/11/13 00:14:15;;;;;;;1.27;1.27;;;;;;;7.61;72.22;100806.56;5100762;28;20032;-81
2023/11/13 00:16:41;;;;;;;0.60;0.60;;;;;;;7.60;72.44;100799.53;5101145;28;20024;-81
2023/11/13 00:19:07;;;;;;;1.35;1.25;;;;;;;7.63;72.25;100786.34;5100146;28;20032;-81
2023/11/13 00:21:33;;;;;;;0.10;0.10;;;;;;;7.62;72.56;100784.59;5097401;28;20039;-80
2023/11/13 00:24:00;;;;;;;0.30;0.30;;;;;;;7.66;72.62;100778.38;5098385;28;20024;-81
2023/11/13 00:26:26;;;;;;;0.20;0.20;;;;;;;7.71;72.55;100786.28;5099749;28;20518;-80
2023/11/13 00:28:53;;;;;;;0.20;0.20;;;;;;;7.73;72.70;100785.38;5103163;28;20035;-82
2023/11/13 00:31:19;;;;;;;0.20;0.20;;;;;;;7.76;72.19;100780.06;5097882;28;20050;-82
2023/11/13 00:33:48;;;;;;;5.00;1.75;;;;;;;7.82;72.22;100788.81;5092302;28;20051;-80
2023/11/13 00:36:14;;;;;;;0.73;0.68;;;;;;;7.87;72.16;100781.72;5097838;28;20035;-81
2023/11/13 00:38:41;;;;;;;0.20;0.20;;;;;;;7.90;72.17;100776.41;5098266;28;20149;-82
2023/11/13 00:41:11;;;;;;;0.68;0.68;;;;;;;7.95;72.83;100774.63;5103824;28;20032;-82
2023/11/13 00:43:38;;;;;;;0.20;0.20;;;;;;;7.93;72.59;100768.47;5101125;28;20043;-82
2023/11/13 00:46:04;;;;;;;0.47;0.47;;;;;;;7.92;72.32;100764.09;5103197;28;20096;-81
2023/11/13 00:48:32;;;;;;;0.17;0.17;;;;;;;7.90;72.43;100760.56;5104069;28;20036;-81
2023/11/13 00:50:58;;;;;;;1.08;1.08;;;;;;;7.93;72.24;100755.28;5101151;28;20032;-81
2023/11/13 00:53:25;;;;;;;0.20;0.20;;;;;;;7.89;72.86;100750.94;5098864;28;20043;-81
2023/11/13 00:55:51;;;;;;;3.03;0.95;;;;;;;7.87;72.55;100739.53;5100723;28;20039;-81
2023/11/13 00:58:18;;;;;;;0.20;0.20;;;;;;;7.89;72.08;100735.13;5102518;28;20043;-81
2023/11/13 01:00:44;;;;;;;0.52;0.52;;;;;;;7.88;72.74;100736.84;5104235;28;20023;-80
2023/11/13 01:03:10;;;;;;;0.20;0.20;;;;;;;7.85;72.38;100738.66;5106935;28;20043;-79
2023/11/13 01:05:37;;;;;;;0.47;0.47;;;;;;;7.86;72.69;100729.84;5106347;28;20031;-81
2023/11/13 01:08:04;;;;;;;3.30;1.45;;;;;;;7.85;72.48;100726.34;5106150;28;20032;-81
2023/11/13 01:10:30;;;;;;;0.95;0.95;;;;;;;7.83;72.49;100727.25;5106166;28;20039;-80
2023/11/13 01:12:57;;;;;;;1.08;0.63;;;;;;;7.86;72.61;100727.22;5103560;28;20035;-80
2023/11/13 01:15:23;;;;;;;0.20;0.20;;;;;;;7.88;72.74;100736.00;5104858;28;20038;-81
2023/11/13 01:17:49;;;;;;;0.32;0.32;;;;;;;7.89;72.66;100740.38;5104891;28;20036;-81
2023/11/13 01:20:18;;;;;;;0.60;0.60;;;;;;;7.91;72.88;100742.13;5104588;28;20040;-81
2023/11/13 01:22:45;;;;;;;0.30;0.30;;;;;;;7.98;72.96;100742.91;5108624;28;20030;-81
2023/11/13 01:25:11;;;;;;;0.20;0.20;;;;;;;8.00;72.92;100746.41;5109273;28;20054;-80
2023/11/13 01:27:37;;;;;;;0.20;0.20;;;;;;;8.02;72.42;100741.13;5113104;28;20024;-79
2023/11/13 01:30:08;;;;;;;0.30;0.30;;;;;;;8.12;72.37;100741.91;5111496;28;20055;-80
2023/11/13 01:32:34;;;;;;;0.13;0.13;;;;;;;8.11;72.68;100738.38;5107712;28;20077;-79
2023/11/13 01:35:00;;;;;;;0.50;0.50;;;;;;;8.15;72.83;100744.47;5109109;28;20063;-81
2023/11/13 01:37:27;;;;;;;0.40;0.40;;;;;;;8.19;72.69;100740.94;5108373;28;20051;-78
2023/11/13 01:39:53;;;;;;;0.10;0.10;;;;;;;8.24;72.69;100739.97;5107622;28;20104;-79
2023/11/13 01:42:20;;;;;;;0.30;0.30;;;;;;;8.24;72.91;100739.97;5108112;28;20035;-80
2023/11/13 01:44:46;;;;;;;0.22;0.22;;;;;;;8.28;72.31;100730.25;5106449;28;20020;-80
2023/11/13 01:47:13;;;;;;;0.20;0.20;;;;;;;8.29;72.92;100739.03;5105640;28;20040;-80
2023/11/13 01:49:40;;;;;;;0.35;0.35;;;;;;;8.33;72.63;100733.72;5104901;28;20059;-80
2023/11/13 01:52:07;;;;;;;0.32;0.32;;;;;;;8.31;72.74;100726.69;5106758;28;20059;-80
2023/11/13 01:54:34;;;;;;;0.20;0.20;;;;;;;8.34;72.50;100721.41;5107658;28;20035;-80
2023/11/13 01:57:05;;;;;;;0.30;0.30;;;;;;;8.38;72.54;100726.59;5101700;28;20024;-80
2023/11/13 01:59:34;;;;;;;0.20;0.20;;;;;;;8.36;72.39;100717.84;5109812;28;20054;-80
2023/11/13 02:02:03;;;;;;;0.20;0.20;;;;;;;8.37;73.12;100710.78;5108524;28;20032;-80
2023/11/13 02:04:29;;;;;;;0.43;0.43;;;;;;;8.38;72.36;100704.63;5109337;28;20028;-79
2023/11/13 02:06:56;;;;;;;0.25;0.25;;;;;;;8.37;73.10;100703.75;5108495;28;20051;-80
2023/11/13 02:09:24;;;;;;;0.28;0.28;;;;;;;8.42;72.57;100701.91;5106739;28;20263;-80
2023/11/13 02:11:51;;;;;;;0.50;0.50;;;;;;;8.46;73.01;100696.59;5107293;28;20050;-80
2023/11/13 02:14:17;;;;;;;0.20;0.20;;;;;;;8.52;72.81;100693.91;5108687;28;20048;-80
2023/11/13 02:16:43;;;;;;;3.65;2.47;;;;;;;8.52;72.43;100701.81;5107899;28;20027;-79
2023/11/13 02:19:15;;;;;;;0.20;0.20;;;;;;;8.60;72.87;100704.34;5102886;28;20051;-79
2023/11/13 02:21:42;;;;;;;1.17;1.13;;;;;;;8.63;72.52;100701.69;5105903;28;20020;-80
2023/11/13 02:24:09;;;;;;;1.10;1.10;;;;;;;8.69;72.48;100709.50;5103509;28;20090;-81
2023/11/13 02:26:36;;;;;;;0.20;0.20;;;;;;;8.69;72.77;100698.94;5106044;28;20048;-79
2023/11/13 02:29:02;;;;;;;2.78;1.60;;;;;;;8.71;72.58;100690.09;5104622;28;20054;-81
2023/11/13 02:31:28;;;;;;;0.32;0.32;;;;;;;8.77;72.60;100675.06;5105553;28;20122;-80
2023/11/13 02:33:54;;;;;;;0.35;0.35;;;;;;;8.78;72.78;100663.59;5102127;28;20039;-81
2023/11/13 02:36:21;;;;;;;0.20;0.20;;;;;;;8.82;72.82;100660.00;5105177;28;20059;-81
2023/11/13 02:38:47;;;;;;;0.20;0.20;;;;;;;8.83;72.67;100659.09;5106203;28;20054;-80
2023/11/13 02:41:13;;;;;;;0.10;0.10;;;;;;;8.88;72.69;100649.34;5106653;28;20028;-80
2023/11/13 02:43:40;;;;;;;0.10;0.10;;;;;;;8.88;72.67;100651.97;5107603;28;20020;-79
2023/11/13 02:46:06;;;;;;;1.48;1.38;;;;;;;8.90;72.56;100651.06;5104250;28;20031;-79
2023/11/13 02:48:32;;;;;;;0.20;0.20;;;;;;;8.88;72.66;100667.84;5102375;28;20087;-79
2023/11/13 02:50:59;;;;;;;0.30;0.30;;;;;;;8.90;72.85;100671.34;5105508;28;20043;-79
2023/11/13 02:53:25;;;;;;;0.20;0.20;;;;;;;8.88;72.76;100684.56;5106322;28;20024;-79
2023/11/13 02:55:52;;;;;;;0.20;0.20;;;;;;;8.91;72.85;100686.28;5102719;28;20024;-80
2023/11/13 02:58:19;;;;;;;0.20;0.20;;;;;;;8.95;72.86;100695.91;5103491;28;20055;-79
2023/11/13 03:00:46;;;;;;;0.20;0.20;;;;;;;8.99;72.82;100691.44;5103103;28;20028;-80
2023/11/13 03:03:13;;;;;;;0.20;0.20;;;;;;;8.98;73.00;100685.28;5104894;28;20020;-80
2023/11/13 03:05:39;;;;;;;0.30;0.30;;;;;;;9.03;72.84;100683.47;5105113;28;20114;-80
2023/11/13 03:08:05;;;;;;;0.20;0.20;;;;;;;9.05;72.82;100692.22;5106701;28;20028;-79
2023/11/13 03:10:31;;;;;;;0.10;0.10;;;;;;;9.10;73.15;100689.50;5100877;28;20055;-79
2023/11/13 03:12:58;;;;;;;0.20;0.20;;;;;;;9.15;72.80;100705.28;5106639;28;20289;-80
2023/11/13 03:15:24;;;;;;;0.40;0.40;;;;;;;9.17;72.91;100708.78;5099749;28;20107;-80
2023/11/13 03:17:51;;;;;;;0.65;0.65;;;;;;;9.22;72.78;100688.41;5104187;28;20058;-80
2023/11/13 03:20:17;;;;;;;0.20;0.20;;;;;;;9.20;72.92;100700.81;5106019;28;20525;-81
2023/11/13 03:22:44;;;;;;;0.10;0.10;;;;;;;9.26;73.07;100695.41;5104698;28;20032;-78
2023/11/13 03:25:12;;;;;;;0.30;0.30;;;;;;;9.22;72.95;100689.31;5104484;28;20111;-79
2023/11/13 03:27:39;;;;;;;0.20;0.20;;;;;;;9.28;72.83;100682.16;5107211;28;20028;-82
2023/11/13 03:30:05;;;;;;;0.20;0.20;;;;;;;9.32;72.78;100668.88;5101363;28;20092;-81
2023/11/13 03:32:32;;;;;;;0.10;0.10;;;;;;;9.35;72.77;100676.72;5100895;28;20120;-80
2023/11/13 03:34:58;;;;;;;0.10;0.10;;;;;;;9.36;72.81;100673.19;5099072;28;20024;-80
2023/11/13 03:37:24;;;;;;;0.55;0.55;;;;;;;9.37;72.76;100676.69;5098850;28;20031;-81
2023/11/13 03:39:50;;;;;;;0.20;0.20;;;;;;;9.34;72.88;100679.41;5107793;28;20028;-82
2023/11/13 03:42:16;;;;;;;1.00;1.00;;;;;;;9.43;72.98;100678.38;5109738;28;20035;-81
2023/11/13 03:44:43;;;;;;;0.57;0.57;;;;;;;9.35;72.80;100674.09;5106588;28;20535;-79
2023/11/13 03:47:09;;;;;;;0.10;0.10;;;;;;;9.41;72.84;100678.41;5105868;28;20032;-78
2023/11/13 03:49:35;;;;;;;1.02;0.77;;;;;;;9.44;72.86;100678.34;5105561;28;20083;-81
2023/11/13 03:52:02;;;;;;;0.38;0.35;;;;;;;9.43;72.82;100671.31;5105951;28;20035;-79
2023/11/13 03:54:28;;;;;;;0.20;0.20;;;;;;;9.46;72.86;100663.31;5106746;28;20028;-81
2023/11/13 03:56:54;;;;;;;0.20;0.20;;;;;;;9.46;72.87;100650.09;5102672;28;20048;-81
2023/11/13 03:59:20;;;;;;;0.95;0.95;;;;;;;9.45;73.03;100647.50;5104198;28;20036;-80
2023/11/13 04:01:47;;;;;;;0.20;0.20;;;;;;;9.46;72.91;100623.66;5103436;28;20028;-80
2023/11/13 04:04:13;;;;;;;0.17;0.17;;;;;;;9.44;72.97;100614.00;5105480;28;20089;-80
2023/11/13 04:06:40;;;;;;;0.43;0.43;;;;;;;9.44;72.97;100611.38;5101169;28;20032;-80
2023/11/13 04:09:06;;;;;;;0.77;0.75;;;;;;;9.41;73.22;100593.78;5100688;28;20024;-80
2023/11/13 04:11:32;;;;;;;0.63;0.63;;;;;;;9.39;73.25;100591.19;5102259;28;20023;-80
2023/11/13 04:13:58;;;;;;;0.15;0.15;;;;;;;9.37;73.40;100581.50;5105186;28;20066;-80
2023/11/13 04:16:24;;;;;;;0.20;0.20;;;;;;;9.44;73.18;100569.06;5106575;28;20092;-81
2023/11/13 04:18:51;;;;;;;0.30;0.30;;;;;;;9.36;73.53;100559.50;5107012;28;20031;-81
2023/11/13 04:21:17;;;;;;;0.20;0.20;;;;;;;9.38;73.60;100556.81;5107030;28;20681;-81
2023/11/13 04:23:43;;;;;;;1.23;1.17;;;;;;;9.39;73.41;100559.44;5105809;28;20036;-82
2023/11/13 04:26:10;;;;;;;0.20;0.20;;;;;;;9.43;73.47;100554.09;5105242;28;20035;-80
2023/11/13 04:28:36;;;;;;;0.73;0.73;;;;;;;9.47;73.61;100550.47;5105153;28;20117;-81
2023/11/13 04:31:02;;;;;;;0.73;0.70;;;;;;;9.50;73.36;100550.44;5105173;28;20059;-81
2023/11/13 04:33:28;;;;;;;0.30;0.30;;;;;;;9.48;73.57;100560.16;5103896;28;20044;-80
2023/11/13 04:35:54;;;;;;;0.10;0.10;;;;;;;9.49;73.53;100559.25;5102347;28;20032;-81
2023/11/13 04:38:21;;;;;;;0.68;0.68;;;;;;;9.51;73.58;100555.69;5107705;28;20040;-81
2023/11/13 04:40:47;;;;;;;0.35;0.35;;;;;;;9.53;73.71;100563.56;5104350;28;20027;-81
2023/11/13 04:43:13;;;;;;;0.20;0.20;;;;;;;9.53;73.62;100560.94;5106693;28;20027;-81
2023/11/13 04:45:39;;;;;;;0.20;0.20;;;;;;;9.55;73.67;100565.28;5106723;28;20054;-81
2023/11/13 04:48:06;;;;;;;0.20;0.20;;;;;;;9.59;73.82;100562.59;5105678;28;20039;-80
2023/11/13 04:50:34;;;;;;;0.20;0.20;;;;;;;9.59;73.56;100558.16;5104395;28;20024;-80
2023/11/13 04:53:00;;;;;;;0.20;0.20;;;;;;;9.55;73.86;100564.41;5105177;28;20367;-81
2023/11/13 04:55:26;;;;;;;0.10;0.10;;;;;;;9.65;73.58;100555.38;5107330;28;20024;-81
2023/11/13 04:57:53;;;;;;;0.70;0.70;;;;;;;9.66;73.62;100540.41;5108037;28;20513;-80
2023/11/13 05:00:19;;;;;;;0.20;0.20;;;;;;;9.70;73.70;100548.22;5110016;28;20036;-81
2023/11/13 05:02:45;;;;;;;0.20;0.20;;;;;;;9.70;73.65;100532.34;5109504;28;20017;-80
2023/11/13 05:05:12;;;;;;;5.88;2.58;;;;;;;9.75;73.73;100542.84;5103386;28;20057;-80
2023/11/13 05:07:39;;;;;;;0.20;0.20;;;;;;;9.77;73.74;100548.97;5108696;28;20039;-80
2023/11/13 05:10:05;;;;;;;0.20;0.20;;;;;;;9.78;73.56;100547.19;5109819;28;20058;-81
2023/11/13 05:12:32;;;;;;;0.20;0.20;;;;;;;9.77;73.88;100532.22;5106883;28;20012;-80
2023/11/13 05:14:58;;;;;;;0.10;0.10;;;;;;;9.78;73.75;100529.56;5104995;28;20043;-78
2023/11/13 05:17:24;;;;;;;1.27;1.20;;;;;;;9.77;73.96;100532.22;5107689;28;20020;-79
2023/11/13 05:19:50;;;;;;;0.20;0.20;;;;;;;9.75;74.14;100526.09;5105734;28;20059;-79
2023/11/13 05:22:17;;;;;;;0.22;0.22;;;;;;;9.78;74.02;100524.28;5106441;28;20085;-80
2023/11/13 05:24:43;;;;;;;0.13;0.13;;;;;;;9.78;74.04;100518.09;5108365;28;20088;-79
2023/11/13 05:27:09;;;;;;;0.10;0.10;;;;;;;9.77;74.24;100516.34;5106113;28;20058;-79
2023/11/13 05:29:35;;;;;;;0.28;0.28;;;;;;;9.81;74.13;100510.09;5103176;28;20032;-80
2023/11/13 05:32:01;;;;;;;0.17;0.17;;;;;;;9.80;74.34;100511.84;5103993;28;20407;-80
2023/11/13 05:34:27;;;;;;;0.20;0.20;;;;;;;9.85;74.17;100504.69;5095040;28;20149;-80
2023/11/13 05:36:53;;;;;;;0.28;0.28;;;;;;;9.96;73.80;100501.81;5097022;28;20035;-81
2023/11/13 05:39:21;;;;;;;1.08;1.08;;;;;;;9.94;74.02;100505.38;5104393;28;20027;-79
2023/11/13 05:41:47;;;;;;;0.47;0.47;;;;;;;9.92;74.26;100500.13;5103894;28;20023;-80
2023/11/13 05:44:13;;;;;;;0.47;0.47;;;;;;;9.94;73.82;100498.31;5098705;28;20038;-80
2023/11/13 05:46:40;;;;;;;0.20;0.20;;;;;;;9.99;74.09;100490.28;5101086;28;20028;-80
2023/11/13 05:49:06;;;;;;;0.35;0.35;;;;;;;9.95;74.28;100484.19;5099125;28;20055;-79
2023/11/13 05:51:32;;;;;;;1.40;1.10;;;;;;;9.95;74.19;100480.66;5099861;28;20027;-78
2023/11/13 05:53:58;;;;;;;0.20;0.20;;;;;;;9.97;74.25;100466.50;5099214;28;20036;-79
2023/11/13 05:56:24;;;;;;;0.20;0.20;;;;;;;10.00;74.03;100468.19;5104506;28;20545;-79
2023/11/13 05:58:51;;;;;;;0.57;0.57;;;;;;;10.06;73.99;100475.13;5104037;28;20032;-79
2023/11/13 06:01:18;;;;;;;0.28;0.28;;;;;;;10.06;74.13;100475.13;5107014;28;20043;-79
2023/11/13 06:03:44;;;;;;;0.10;0.10;;;;;;;10.12;74.01;100470.56;5103812;28;20024;-79
2023/11/13 06:06:17;;;;;;;0.70;0.70;;;;;;;10.18;74.14;100469.50;5105477;28;20047;-79
2023/11/13 06:08:45;;;;;;;4.85;2.10;;;;;;;10.16;74.25;100466.06;5104000;28;20043;-78
2023/11/13 06:11:12;;;;;;;1.85;1.75;;;;;;;10.14;74.15;100459.91;5100176;28;20112;-79
2023/11/13 06:13:38;;;;;;;0.73;0.73;;;;;;;10.13;74.38;100455.53;5097439;28;20517;-79
2023/11/13 06:16:04;;;;;;;0.15;0.15;;;;;;;10.15;74.41;100448.44;5098535;28;20169;-79
2023/11/13 06:18:31;;;;;;;0.57;0.57;;;;;;;10.14;74.70;100454.63;5100644;28;20573;-79
2023/11/13 06:20:58;;;;;;;0.45;0.45;;;;;;;10.13;74.85;100455.53;5096794;28;20036;-80
2023/11/13 06:23:24;;;;;;;0.30;0.30;;;;;;;10.19;74.76;100450.09;5101852;28;20059;-79
2023/11/13 06:25:50;;;;;;;0.47;0.47;;;;;;;10.24;74.65;100453.47;5096364;28;20415;-79
2023/11/13 06:28:16;;;;;;;0.10;0.10;;;;;;;10.23;74.59;100459.72;5097912;28;20024;-81
2023/11/13 06:30:45;;;;;;;0.95;0.95;;;;;;;10.23;75.30;100457.06;5102342;28;20044;-80
2023/11/13 06:33:11;;;;;;;0.20;0.20;;;;;;;10.25;75.10;100441.97;5101167;28;20051;-80
2023/11/13 06:35:38;;;;;;;0.32;0.32;;;;;;;10.29;75.09;100450.72;5101751;28;20020;-79
2023/11/13 06:38:04;;;;;;;0.10;0.10;;;;;;;10.31;74.99;100447.13;5104050;28;20024;-80
2023/11/13 06:40:30;;;;;;;0.10;0.10;;;;;;;10.32;74.74;100443.56;5091664;28;20032;-81
2023/11/13 06:42:56;;;;;;;0.17;0.17;;;;;;;10.31;74.99;100433.88;5100285;28;20028;-81
2023/11/13 06:45:22;;;;;;;0.20;0.20;;;;;;;10.34;74.96;100430.28;5100020;28;20036;-80
2023/11/13 06:47:50;;;;;;;0.20;0.20;;;;;;;10.38;75.25;100429.34;5100920;28;20595;-81
2023/11/13 06:50:18;;;;;;;0.73;0.73;;;;;;;10.32;75.23;100435.63;5097927;28;20513;-81
2023/11/13 06:52:44;;;;;;;0.88;0.88;;;;;;;10.38;75.54;100431.13;5098258;28;20051;-81
2023/11/13 06:55:13;;;;;;;0.65;0.65;;;;;;;10.44;75.17;100423.00;5100132;28;20059;-81
2023/11/13 06:57:41;;;;;;;0.60;0.60;;;;;;;10.47;75.64;100417.66;5102446;28;20027;-81
2023/11/13 07:00:09;;;;;;;6.93;2.30;;;;;;;10.46;75.44;100416.75;5101927;28;20115;-80
2023/11/13 07:02:39;;;;;;;0.52;0.52;;;;;;;10.49;75.38;100416.69;5101469;28;20023;-80
2023/11/13 07:05:07;;;;;;;0.77;0.35;;;;;;;10.52;75.88;100405.16;5101325;28;20101;-82
2023/11/13 07:07:33;;;;;;;0.35;0.35;;;;;;;10.50;75.87;100396.38;5092503;28;20024;-80
2023/11/13 07:10:01;;;;;;;1.33;1.33;;;;;;;10.56;75.78;100390.03;5099090;28;20024;-81
2023/11/13 07:12:29;;;;;;;0.20;0.20;;;;;;;10.58;75.84;100386.44;5096152;28;20054;-80
2023/11/13 07:14:57;;;;;;;0.20;0.20;;;;;;;10.63;75.56;100381.00;5094844;28;20089;-82
2023/11/13 07:17:24;;;;;;;0.35;0.35;;;;;;;10.66;75.83;100386.22;5095631;28;20027;-81
2023/11/13 07:19:50;;;;;;;0.65;0.65;;;;;;;10.68;75.68;100379.97;5095955;28;20479;-81
2023/11/13 07:22:17;;;;;;;0.40;0.40;;;;;;;10.67;75.78;100372.94;5096388;28;20027;-82
2023/11/13 07:24:43;;;;;;;0.10;0.10;;;;;;;10.71;76.12;100367.56;5094542;28;20031;-83
2023/11/13 07:27:12;;;;;;;0.20;0.20;;;;;;;10.76;75.76;100376.25;5093962;28;20039;-81
2023/11/13 07:29:39;;;;;;;0.10;0.10;;;;;;;10.81;75.48;100375.19;5090784;28;20023;-81
2023/11/13 07:32:05;;;;;;;0.20;0.20;;;;;;;10.79;75.65;100377.03;5097116;28;20024;-81
2023/11/13 07:34:32;;;;;;;0.30;0.30;;;;;;;10.86;75.72;100375.06;5090015;28;20017;-82
2023/11/13 07:36:58;;;;;;;5.05;1.00;;;;;;;10.92;75.52;100366.94;5092501;28;20024;-82
2023/11/13 07:39:27;;;;;;;0.20;0.20;;;;;;;10.95;75.52;100366.84;5098929;28;20499;-82
2023/11/13 07:41:56;;;;;;;0.30;0.30;;;;;;;10.96;76.27;100352.66;5100626;28;20087;-82
2023/11/13 07:44:23;;;;;;;0.20;0.20;;;;;;;10.99;76.87;100363.19;5096794;28;20016;-83
2023/11/13 07:46:51;;;;;;;0.20;0.20;;;;;;;11.06;76.47;100347.09;5097117;28;20032;-82
2023/11/13 07:49:17;;;;;;;0.80;0.80;;;;;;;11.09;76.86;100342.59;5094151;28;20028;-84
2023/11/13 07:51:44;;;;;;;0.30;0.30;;;;;;;11.18;76.43;100336.13;5089200;28;20047;-82
2023/11/13 07:54:10;;;;;;;0.20;0.20;;;;;;;11.17;76.89;100340.53;5091082;28;20119;-82
2023/11/13 07:56:36;;;;;;;0.38;0.38;;;;;;;11.28;76.98;100328.75;5093984;28;20020;-82
2023/11/13 07:59:07;;;;;;;1.42;1.40;;;;;;;11.31;76.98;100326.88;5098546;28;20036;-81
2023/11/13 08:01:34;;;;;;;0.30;0.30;;;;;;;11.31;77.26;100326.88;5093022;28;20038;-79
2023/11/13 08:04:01;;;;;;;0.30;0.30;;;;;;;11.39;77.22;100317.78;5101940;28;20526;-79
2023/11/13 08:06:28;;;;;;;0.30;0.30;;;;;;;11.45;77.29;100309.63;5093476;28;20921;-80
2023/11/13 08:08:55;;;;;;;8.07;2.50;;;;;;;11.50;77.27;100294.44;5097431;28;20032;-80
2023/11/13 08:11:24;;;;;;;0.20;0.20;;;;;;;11.54;77.51;100287.25;5096711;28;20036;-81
2023/11/13 08:13:50;;;;;;;0.90;0.90;;;;;;;11.61;77.54;100283.47;5100179;28;20066;-81
2023/11/13 08:16:18;;;;;;;0.32;0.32;;;;;;;11.72;76.85;100278.69;5095571;28;20048;-81
2023/11/13 08:18:44;;;;;;;1.67;0.52;;;;;;;11.74;77.80;100275.97;5097738;28;20027;-80
2023/11/13 08:21:10;;;;;;;0.20;0.20;;;;;;;11.81;77.74;100272.19;5099274;28;20093;-81
2023/11/13 08:23:36;;;;;;;0.95;0.95;;;;;;;11.85;77.71;100273.84;5100623;28;20012;-81
2023/11/13 08:26:04;;;;;;;0.20;0.17;;;;;;;11.94;77.88;100260.22;5096034;28;20040;-81
2023/11/13 08:28:31;;;;;;;1.38;1.38;;;;;;;11.94;78.51;100246.09;5099834;28;20020;-81
2023/11/13 08:30:58;;;;;;;0.63;0.63;;;;;;;11.94;78.45;100233.69;5094719;28;20409;-81
2023/11/13 08:33:24;;;;;;;0.43;0.43;;;;;;;12.01;78.60;100222.88;5094795;28;20025;-80
2023/11/13 08:35:51;;;;;;;0.90;0.90;;;;;;;12.10;78.68;100222.53;5101060;28;20107;-81
2023/11/13 08:38:20;;;;;;;0.20;0.20;;;;;;;12.07;78.89;100214.69;5102610;28;20054;-79
2023/11/13 08:40:50;;;;;;;0.28;0.28;;;;;;;12.23;78.53;100205.22;5097236;28;20024;-81
2023/11/13 08:43:16;;;;;;;0.10;0.10;;;;;;;12.27;78.70;100190.94;5096750;28;20028;-81
2023/11/13 08:45:44;;;;;;;0.10;0.10;;;;;;;12.24;78.22;100191.03;5095348;28;20063;-82
2023/11/13 08:48:10;;;;;;;0.30;0.30;;;;;;;12.30;78.18;100196.13;5102604;28;20020;-82
2023/11/13 08:50:37;;;;;;;0.10;0.10;;;;;;;12.32;78.58;100177.47;5097551;28;20025;-82
2023/11/13 08:53:05;;;;;;;0.43;0.43;;;;;;;12.26;79.29;100167.94;5100930;28;20084;-82
2023/11/13 08:55:33;;;;;;;0.10;0.10;;;;;;;12.36;78.53;100163.16;5100057;28;20051;-81
2023/11/13 08:58:03;;;;;;;0.17;0.17;;;;;;;12.35;78.49;100160.53;5102443;28;20035;-80
2023/11/13 09:00:40;;;;;;;0.20;0.20;;;;;;;12.32;78.86;100161.50;5095884;28;20027;-79
2023/11/13 09:03:08;;;;;;;1.40;1.40;;;;;;;12.39;78.69;100154.19;5093966;28;20024;-82
2023/11/13 09:05:35;;;;;;;1.60;1.50;;;;;;;12.40;78.85;100140.84;5090488;28;20024;-82
2023/11/13 09:08:02;;;;;;;0.10;0.10;;;;;;;12.41;78.92;100144.34;5094325;28;20119;-82
2023/11/13 09:10:29;;;;;;;0.10;0.10;;;;;;;12.44;78.49;100136.28;5097757;28;20032;-83
2023/11/13 09:13:00;;;;;;;0.43;0.43;;;;;;;12.50;78.65;100122.75;5090425;28;20032;-80
2023/11/13 09:15:29;;;;;;;0.15;0.15;;;;;;;12.48;78.68;100113.97;5093185;28;20032;-82
2023/11/13 09:17:58;;;;;;;0.20;0.20;;;;;;;12.43;78.31;100110.63;5087942;28;20028;-81
2023/11/13 09:20:25;;;;;;;0.10;0.10;;;;;;;12.50;78.34;100114.78;5091605;28;20047;-80
2023/11/13 09:22:52;;;;;;;0.20;0.20;;;;;;;12.47;78.35;100120.22;5088361;28;20232;-82
2023/11/13 09:25:19;;;;;;;0.10;0.10;;;;;;;12.53;77.99;100096.06;5095430;28;20041;-79
2023/11/13 09:27:48;;;;;;;0.60;0.60;;;;;;;12.58;78.00;100090.56;5092731;28;20386;-81
2023/11/13 09:30:18;;;;;;;0.43;0.43;;;;;;;12.47;77.87;100075.03;5094433;28;20032;-80
2023/11/13 09:32:46;;;;;;;0.10;0.10;;;;;;;12.51;77.92;100063.38;5092268;28;20032;-82
2023/11/13 09:35:29;;;;;;;0.25;0.25;;;;;;;12.37;77.83;100063.06;5091061;28;20024;-81
2023/11/13 09:37:57;;;;;;;0.20;0.20;;;;;;;12.45;77.92;100072.44;5097987;28;20020;-82
2023/11/13 09:40:25;;;;;;;0.10;0.10;;;;;;;12.44;77.62;100059.25;5100077;28;20027;-81
2023/11/13 09:42:54;;;;;;;0.30;0.30;;;;;;;12.45;78.15;100045.88;5099003;28;20092;-81
2023/11/13 09:45:22;;;;;;;0.38;0.38;;;;;;;12.35;77.76;100041.88;5100665;28;20433;-81
2023/11/13 09:47:56;;;;;;;0.20;0.20;;;;;;;12.43;77.48;100041.56;5099503;28;20124;-80
2023/11/13 09:50:22;;;;;;;0.10;0.10;;;;;;;12.53;77.41;100034.94;5099432;28;20046;-81
2023/11/13 09:52:50;;;;;;;0.10;0.10;;;;;;;12.48;77.35;100026.28;5098063;28;20025;-81
2023/11/13 09:55:20;;;;;;;0.10;0.10;;;;;;;12.53;77.60;100018.13;5095677;28;20093;-82
2023/11/13 09:57:48;;;;;;;0.10;0.10;;;;;;;12.48;77.42;100007.69;5092977;28;20072;-80
2023/11/13 10:00:17;;;;;;;0.10;0.10;;;;;;;12.41;77.34;100011.53;5092139;28;20027;-81
2023/11/13 10:02:46;;;;;;;0.30;0.30;;;;;;;12.48;77.54;100005.03;5090096;28;20027;-81
2023/11/13 10:05:15;;;;;;;0.10;0.10;;;;;;;12.45;77.28;99991.91;5085414;28;20632;-81
2023/11/13 10:07:47;;;;;;;0.20;0.20;;;;;;;12.41;77.76;99984.97;5094399;28;20024;-80
2023/11/13 10:10:29;;;;;;;0.15;0.15;;;;;;;12.41;77.72;99990.28;5096409;28;20027;-80
2023/11/13 10:12:58;;;;;;;0.20;0.20;;;;;;;12.42;77.95;99981.38;5095875;28;20028;-80
2023/11/13 10:15:27;;;;;;;0.47;0.47;;;;;;;12.40;77.81;99976.13;5094093;28;20027;-82
2023/11/13 10:17:57;;;;;;;0.10;0.10;;;;;;;12.40;77.71;99969.94;5096443;28;20126;-82
2023/11/13 10:20:25;;;;;;;0.10;0.10;;;;;;;12.47;77.95;99950.16;5089476;28;20487;-82
2023/11/13 10:23:08;;;;;;;0.20;0.20;;;;;;;12.53;77.84;99936.63;5091094;28;20038;-82
2023/11/13 10:25:52;;;;;;;;;;;;;;;12.59;77.28;99930.19;5096471;28;20024;-82
2023/11/13 10:28:22;;;;;;;0.17;0.17;;;;;;;12.51;77.46;99917.25;5089890;28;19924;-79
2023/11/13 10:33:33;;;;;;;0.63;0.63;;;;;;;12.55;77.74;99888.75;5102427;27;20405;-82
2023/11/13 10:36:04;;;;;;;0.15;0.15;;;;;;;12.58;78.11;99891.25;5087684;28;20511;-82
2023/11/13 10:38:47;;;;;;;0.13;0.13;;;;;;;12.66;77.43;99890.91;5087934;28;20684;-81
2023/11/13 10:41:21;;;;;;;0.13;0.13;;;;;;;12.57;77.49;99879.78;5092224;28;20012;-81
2023/11/13 10:43:47;;;;;;;0.10;0.10;;;;;;;12.56;78.12;99872.72;5103191;28;20029;-82
2023/11/13 10:46:30;;;;;;;0.10;0.10;;;;;;;12.64;78.00;99876.84;5104192;28;20066;-82
2023/11/13 10:48:58;;;;;;;0.15;0.15;;;;;;;12.57;78.00;99862.97;5094274;28;20028;-82
2023/11/13 10:51:25;;;;;;;0.10;0.10;;;;;;;12.61;78.25;99852.13;5102218;28;20024;-81
2023/11/13 10:53:54;;;;;;;0.50;0.50;;;;;;;12.68;77.87;99841.22;5103013;28;20024;-82
2023/11/13 10:56:21;;;;;;;0.40;0.40;;;;;;;12.66;78.67;99836.00;5098965;28;20539;-81
2023/11/13 10:58:48;;;;;;;0.10;0.10;;;;;;;12.74;78.38;99838.28;5101911;28;20054;-83
2023/11/13 11:01:19;;;;;;;0.10;0.10;;;;;;;12.81;78.28;99826.47;5102337;28;20156;-82
2023/11/13 11:03:47;;;;;;;0.10;0.10;;;;;;;12.77;78.50;99812.44;5092507;28;20021;-82
2023/11/13 11:06:20;;;;;;;0.20;0.20;;;;;;;12.82;78.71;99806.03;5101943;28;20027;-82
2023/11/13 11:08:46;;;;;;;;;;;;;;;12.98;78.14;99795.56;5093006;28;20066;-80
2023/11/13 11:11:13;;;;;;;0.10;0.10;;;;;;;12.88;78.47;99780.03;5101012;28;19908;-82
2023/11/13 11:13:47;;;;;;;0.10;0.10;;;;;;;13.03;78.50;99769.63;5100519;28;20419;-82
2023/11/13 11:16:38;;;;;;;0.10;0.10;;;;;;;13.06;78.98;99761.47;5102742;28;20038;-82
2023/11/13 11:19:20;;;;;;;0.25;0.25;;;;;;;13.10;79.28;99745.31;5089052;28;20058;-82
2023/11/13 11:22:17;;;;;;;0.20;0.20;;;;;;;13.19;79.06;99738.69;5101354;28;20035;-80
2023/11/13 11:27:41;;;;;;;0.10;0.10;;;;;;;13.29;79.30;99701.00;5018219;27;20361;-82
2023/11/13 11:33:00;;;;;;;0.10;0.10;;;;;;;13.31;79.24;99694.69;5063394;27;20387;-82
2023/11/13 11:35:29;;;;;;;0.95;0.95;;;;;;;13.32;79.38;99707.03;5065412;28;20025;-81
2023/11/13 11:38:26;;;;;;;0.10;0.10;;;;;;;13.46;79.48;99678.91;5059865;28;20460;-82
2023/11/13 11:40:53;;;;;;;0.13;0.13;;;;;;;13.46;80.08;99682.44;5065459;28;20037;-82
2023/11/13 11:43:38;;;;;;;9.20;0.75;;;;;;;13.55;80.67;99673.97;5071914;28;20034;-84